createdAt,value
2018-04-29T00:00:18.684Z,19.68
2018-04-29T00:06:09.409Z,18.12
2018-04-29T00:12:00.192Z,19.25
2018-04-29T00:17:50.909Z,18
2018-04-29T00:23:41.608Z,19.49
2018-04-29T00:29:32.337Z,20.96
2018-04-29T00:35:23.038Z,22.48
2018-04-29T00:41:13.728Z,20.81
2018-04-29T00:47:04.432Z,17.51
2018-04-29T00:52:55.213Z,23.21
2018-04-29T00:58:45.875Z,23.04
2018-04-29T01:04:36.636Z,23.54
2018-04-29T01:10:27.249Z,24.63
2018-04-29T01:16:17.978Z,22.14
2018-04-29T01:22:08.665Z,26.25
2018-04-29T01:27:59.474Z,23.21
2018-04-29T01:33:50.128Z,22.75
2018-04-29T01:39:40.819Z,22.25
2018-04-29T01:45:31.522Z,17.62
2018-04-29T01:51:22.219Z,21.68
2018-04-29T01:57:12.923Z,22.5
2018-04-29T02:03:03.574Z,26
2018-04-29T02:08:54.298Z,21.89
2018-04-29T02:14:45.105Z,23.11
2018-04-29T02:20:35.701Z,23.75
2018-04-29T02:26:26.472Z,22.02
2018-04-29T02:32:17.086Z,18.2
2018-04-29T02:38:07.798Z,23.08
2018-04-29T02:43:58.495Z,23.16
2018-04-29T02:49:49.237Z,20.18
2018-04-29T02:55:39.899Z,19.18
2018-04-29T03:01:30.631Z,23.97
2018-04-29T03:07:21.307Z,23.1
2018-04-29T03:13:12.013Z,17.08
2018-04-29T03:19:02.706Z,21.68
2018-04-29T03:24:53.445Z,20.2
2018-04-29T03:30:44.117Z,18.16
2018-04-29T03:36:34.810Z,22.83
2018-04-29T03:42:25.523Z,23.25
2018-04-29T03:48:16.182Z,18.11
2018-04-29T03:54:06.903Z,19.23
2018-04-29T03:59:57.595Z,24.17
2018-04-29T04:05:48.289Z,21.39
2018-04-29T04:11:39.016Z,21.89
2018-04-29T04:17:29.723Z,21.92
2018-04-29T04:23:20.388Z,23.04
2018-04-29T04:29:11.085Z,19.12
2018-04-29T04:35:01.785Z,25.73
2018-04-29T04:40:52.465Z,21.81
2018-04-29T04:46:43.157Z,21.96
2018-04-29T04:52:33.859Z,23.27
2018-04-29T04:58:24.609Z,23.93
2018-04-29T05:04:15.281Z,24.98
2018-04-29T05:10:06.013Z,22.38
2018-04-29T05:15:56.700Z,23.58
2018-04-29T05:21:47.428Z,19.55
2018-04-29T05:27:38.153Z,24.86
2018-04-29T05:33:28.907Z,20.65
2018-04-29T05:39:19.580Z,26.11
2018-04-29T05:45:10.361Z,25.49
2018-04-29T05:51:01.087Z,26.37
2018-04-29T05:56:51.779Z,22.14
2018-04-29T06:02:42.518Z,25.92
2018-04-29T06:08:33.287Z,23.06
2018-04-29T06:14:24.031Z,23.04
2018-04-29T06:20:14.789Z,22.4
2018-04-29T06:26:05.611Z,26.14
2018-04-29T06:31:56.336Z,33.87
2018-04-29T06:37:47.102Z,38.82
2018-04-29T06:43:37.822Z,39.71
2018-04-29T06:49:28.606Z,46.32
2018-04-29T06:55:19.344Z,46.57
2018-04-29T07:01:10.113Z,36.11
2018-04-29T07:07:00.892Z,34.15
2018-04-29T07:12:51.741Z,40.09
2018-04-29T07:18:42.475Z,41.86
2018-04-29T07:24:33.282Z,33.89
2018-04-29T07:30:24.119Z,36.19
2018-04-29T07:36:14.944Z,23.8
2018-04-29T07:42:05.770Z,27.87
2018-04-29T07:47:56.613Z,28.07
2018-04-29T07:53:47.408Z,36.51
2018-04-29T07:59:38.286Z,27.16
2018-04-29T08:05:29.090Z,28.65
2018-04-29T08:11:19.958Z,33.01
2018-04-29T08:17:10.793Z,40.11
2018-04-29T08:23:01.616Z,30.96
2018-04-29T08:28:52.493Z,31.01
2018-04-29T08:34:43.295Z,33.63
2018-04-29T08:40:34.042Z,31.73
2018-04-29T08:46:24.895Z,37.88
2018-04-29T08:52:15.685Z,47.64
2018-04-29T08:58:06.517Z,40.66
2018-04-29T09:03:57.456Z,66.87
2018-04-29T09:09:48.068Z,200.27
2018-04-29T09:15:38.933Z,107.86
2018-04-29T09:21:29.760Z,37.15
2018-04-29T09:27:20.585Z,34.85
2018-04-29T09:33:11.383Z,39.69
2018-04-29T09:39:02.194Z,0
2018-04-29T09:44:53.036Z,50.42
2018-04-29T09:50:43.882Z,38.09
2018-04-29T09:56:34.733Z,36.34
2018-04-29T10:02:25.570Z,34.59
2018-04-29T10:08:16.383Z,32.19
2018-04-29T10:14:07.282Z,31.64
2018-04-29T10:19:58.186Z,32.85
2018-04-29T10:25:49.034Z,33.6
2018-04-29T10:31:39.946Z,30.51
2018-04-29T10:37:30.861Z,30.09
2018-04-29T10:43:21.773Z,29.76
2018-04-29T10:49:12.612Z,23.07
2018-04-29T10:55:03.478Z,20.71
2018-04-29T11:00:54.291Z,23.23
2018-04-29T11:06:45.153Z,12.56
2018-04-29T11:12:36.002Z,24
2018-04-29T11:18:26.818Z,16.15
2018-04-29T11:24:17.646Z,13.65
2018-04-29T11:30:08.531Z,13.94
2018-04-29T11:35:59.333Z,12.7
2018-04-29T11:41:50.189Z,13.23
2018-04-29T11:47:41.012Z,13.53
2018-04-29T11:53:31.765Z,13.6
2018-04-29T11:59:22.572Z,13.53
2018-04-29T12:05:13.466Z,10.59
2018-04-29T12:11:04.229Z,13.22
2018-04-29T12:16:55.085Z,12.01
2018-04-29T12:22:45.948Z,9.12
2018-04-29T12:28:36.845Z,11.5
2018-04-29T12:34:27.800Z,10.54
2018-04-29T12:40:18.715Z,10.56
2018-04-29T12:46:09.630Z,11.31
2018-04-29T12:52:00.444Z,14.44
2018-04-29T12:57:51.252Z,10.17
2018-04-29T13:03:42.128Z,13.65
2018-04-29T13:09:32.885Z,11.46
2018-04-29T13:15:23.706Z,10.67
2018-04-29T13:21:14.548Z,13.66
2018-04-29T13:27:19.758Z,13.49
2018-04-29T13:32:56.291Z,11.99
2018-04-29T13:38:47.128Z,13.32
2018-04-29T13:44:37.957Z,10.33
2018-04-29T13:50:28.799Z,14.39
2018-04-29T13:56:19.651Z,13.7
2018-04-29T14:02:10.481Z,9.96
2018-04-29T14:08:01.333Z,12.36
2018-04-29T14:13:52.164Z,15.36
2018-04-29T14:19:42.967Z,16.02
2018-04-29T14:25:34.029Z,11.12
2018-04-29T14:31:24.827Z,12.4
2018-04-29T14:37:15.604Z,11.59
2018-04-29T14:43:06.501Z,9.59
2018-04-29T14:54:48.189Z,10.2
2018-04-29T15:06:29.871Z,10.79
2018-04-29T15:12:20.717Z,12.38
2018-04-29T15:18:11.644Z,8.55
2018-04-29T15:24:02.385Z,12.48
2018-04-29T15:29:53.286Z,14.88
2018-04-29T15:35:44.168Z,12.15
2018-04-29T15:41:35.068Z,9.64
2018-04-29T15:47:25.977Z,12.89
2018-04-29T15:53:16.880Z,11.81
2018-04-29T15:59:07.942Z,9.43
2018-04-29T16:04:58.624Z,10.75
2018-04-29T16:10:49.518Z,11.74
2018-04-29T16:16:40.440Z,10.91
2018-04-29T16:22:31.301Z,10.4
2018-04-29T16:28:22.205Z,10.26
2018-04-29T16:34:13.063Z,11.79
2018-04-29T16:40:03.971Z,14.54
2018-04-29T16:45:54.830Z,11.47
2018-04-29T16:51:45.707Z,13.93
2018-04-29T16:57:36.566Z,10.01
2018-04-29T17:03:27.353Z,11.7
2018-04-29T17:09:18.138Z,14.09
2018-04-29T17:15:08.996Z,8.85
2018-04-29T17:20:59.831Z,10.73
2018-04-29T17:26:50.578Z,9.79
2018-04-29T17:32:41.437Z,9.85
2018-04-29T17:38:32.224Z,10.05
2018-04-29T17:44:23.000Z,11.22
2018-04-29T17:50:13.790Z,9.65
2018-04-29T17:56:04.607Z,7.71
2018-04-29T18:01:55.397Z,16.22
2018-04-29T18:07:46.131Z,11.41
2018-04-29T18:13:36.936Z,9.82
2018-04-29T18:19:27.693Z,13.1
2018-04-29T18:25:18.425Z,13.67
2018-04-29T18:31:09.179Z,9.43
2018-04-29T18:37:00.059Z,5.88
2018-04-29T18:42:50.844Z,11.87
2018-04-29T18:48:41.582Z,10.46
2018-04-29T18:54:32.346Z,11.61
2018-04-29T19:00:23.065Z,11.36
2018-04-29T19:06:13.844Z,13.47
2018-04-29T19:12:04.519Z,11.36
2018-04-29T19:17:55.308Z,15.98
2018-04-29T19:23:46.004Z,12.12
2018-04-29T19:29:36.753Z,10
2018-04-29T19:35:27.537Z,15.24
2018-04-29T19:41:18.243Z,13.27
2018-04-29T19:47:08.970Z,15.59
2018-04-29T19:52:59.685Z,13.72
2018-04-29T19:58:50.448Z,12.3
2018-04-29T20:04:41.160Z,13.16
2018-04-29T20:10:31.896Z,13.69
2018-04-29T20:16:22.645Z,10.63
2018-04-29T20:22:13.338Z,13.28
2018-04-29T20:28:04.042Z,17.5
2018-04-29T20:33:54.783Z,16.2
2018-04-29T20:39:45.505Z,15.55
2018-04-29T20:45:36.231Z,15.4
2018-04-29T20:51:26.991Z,15.39
2018-04-29T20:57:17.717Z,14.97
2018-04-29T21:03:08.465Z,12.09
2018-04-29T21:08:59.199Z,15.85
2018-04-29T21:14:49.939Z,11.8
2018-04-29T21:20:40.650Z,14.45
2018-04-29T21:26:31.459Z,15.1
2018-04-29T21:32:22.141Z,13.65
2018-04-29T21:38:12.909Z,15.71
2018-04-29T21:44:03.624Z,18.5
2018-04-29T21:49:54.353Z,17.27
2018-04-29T21:55:45.067Z,18.99
